Time;durP1;ratioP1;P1;durP2;ratioP2;P2;SDS_P1;SDS_P2;PMS_P1;PMS_P2;Temp;Humidity;BMP_temperature;BMP_pressure;BME280_temperature;BME280_humidity;BME280_pressure;Samples;Min_cycle;Max_cycle;Signal;HPM_P1;HPM_P2
2022/02/15 00:02:13;;;;;;;1.98;1.20;;;22.20;58.30;;;;;;5030419;28;20594;-57
2022/02/15 00:04:44;;;;;;;3.13;1.35;;;22.20;58.30;;;;;;5030843;28;20204;-57
2022/02/15 00:07:15;;;;;;;2.67;1.42;;;22.20;58.30;;;;;;5030385;28;20254;-59
2022/02/15 00:09:45;;;;;;;2.33;1.25;;;22.20;58.30;;;;;;5030595;28;20675;-57
2022/02/15 00:12:18;;;;;;;2.78;1.23;;;22.30;58.30;;;;;;5031114;28;20739;-57
2022/02/15 00:14:50;;;;;;;2.33;1.20;;;22.30;58.40;;;;;;5030514;28;20238;-58
2022/02/15 00:17:21;;;;;;;2.15;1.60;;;22.30;58.40;;;;;;5030639;28;20663;-57
2022/02/15 00:19:51;;;;;;;1.45;1.10;;;22.40;58.30;;;;;;5030995;28;20212;-57
2022/02/15 00:22:22;;;;;;;2.95;1.20;;;22.40;58.30;;;;;;5030241;28;20200;-58
2022/02/15 00:24:53;;;;;;;4.13;1.25;;;22.40;58.30;;;;;;5030934;28;20201;-57
2022/02/15 00:27:23;;;;;;;1.83;1.13;;;22.40;58.30;;;;;;5030314;28;20204;-58
2022/02/15 00:29:56;;;;;;;2.78;1.17;;;22.50;58.30;;;;;;5030207;28;20287;-58
2022/02/15 00:32:26;;;;;;;2.17;1.23;;;22.50;58.30;;;;;;5029833;28;20205;-57
2022/02/15 00:34:57;;;;;;;1.95;1.38;;;22.50;58.20;;;;;;5029782;28;20220;-58
2022/02/15 00:37:28;;;;;;;2.58;1.20;;;22.60;58.30;;;;;;5029017;28;20283;-57
2022/02/15 00:39:58;;;;;;;2.78;1.20;;;22.60;58.40;;;;;;5029683;28;20223;-58
2022/02/15 00:42:29;;;;;;;3.05;1.40;;;22.60;58.30;;;;;;5030127;28;20196;-58
2022/02/15 00:45:02;;;;;;;3.15;1.20;;;22.70;58.30;;;;;;5028878;28;20705;-59
2022/02/15 00:47:32;;;;;;;2.10;1.08;;;22.70;58.20;;;;;;5030198;28;20195;-57
2022/02/15 00:50:03;;;;;;;1.90;1.40;;;22.70;58.20;;;;;;5029706;28;20303;-58
2022/02/15 00:52:34;;;;;;;3.20;1.20;;;22.80;58.20;;;;;;5028774;28;20199;-56
2022/02/15 00:55:07;;;;;;;2.35;1.48;;;22.80;58.30;;;;;;5041189;28;20249;-58
2022/02/15 00:57:39;;;;;;;3.05;1.42;;;22.80;58.20;;;;;;5050594;28;20813;-59
2022/02/15 01:00:13;;;;;;;2.40;1.35;;;22.80;58.20;;;;;;5049835;28;20215;-57
2022/02/15 01:02:46;;;;;;;2.10;1.13;;;22.90;58.20;;;;;;5036477;28;20200;-57
2022/02/15 01:05:17;;;;;;;2.10;1.20;;;22.90;58.30;;;;;;5029863;28;20246;-58
2022/02/15 01:11:10;;;;;;;2.40;1.30;;;22.90;58.20;;;;;;5029949;28;20271;-58
2022/02/15 01:13:40;;;;;;;3.28;1.48;;;23.00;58.20;;;;;;5029136;28;20224;-58
2022/02/15 01:16:13;;;;;;;2.50;1.15;;;23.00;58.20;;;;;;5028907;28;20602;-57
2022/02/15 01:18:44;;;;;;;2.65;1.20;;;23.10;58.20;;;;;;5029908;28;20222;-58
2022/02/15 01:21:15;;;;;;;2.90;1.40;;;23.10;58.20;;;;;;5029541;28;20247;-57
2022/02/15 01:23:46;;;;;;;2.47;1.10;;;23.20;58.10;;;;;;5029809;28;20196;-60
2022/02/15 01:26:16;;;;;;;2.55;1.30;;;23.20;58.10;;;;;;5029777;28;20196;-57
2022/02/15 01:28:47;;;;;;;3.95;1.30;;;23.20;58.00;;;;;;5029764;28;20208;-59
2022/02/15 01:31:19;;;;;;;1.38;1.05;;;23.20;57.90;;;;;;5028855;28;20196;-58
2022/02/15 01:33:50;;;;;;;1.65;1.10;;;23.30;57.70;;;;;;5028836;28;20739;-57
2022/02/15 01:36:21;;;;;;;3.42;1.40;;;23.30;57.60;;;;;;5028556;28;20204;-58
2022/02/15 01:38:51;;;;;;;2.40;0.98;;;23.30;57.70;;;;;;5029280;28;20223;-57
2022/02/15 01:41:22;;;;;;;3.65;1.50;;;23.30;57.60;;;;;;5028990;28;20196;-58
2022/02/15 01:43:53;;;;;;;3.30;1.40;;;23.40;57.60;;;;;;5029045;28;20195;-57
2022/02/15 01:46:26;;;;;;;1.55;1.23;;;23.40;57.60;;;;;;5028444;28;20200;-58
2022/02/15 01:48:56;;;;;;;2.92;1.65;;;23.40;57.60;;;;;;5028498;28;20757;-58
2022/02/15 01:51:28;;;;;;;4.57;1.40;;;23.40;57.50;;;;;;5029292;28;20183;-58
2022/02/15 01:53:59;;;;;;;1.65;1.30;;;23.50;57.40;;;;;;5027759;28;20246;-58
2022/02/15 01:56:31;;;;;;;2.15;1.20;;;23.50;57.60;;;;;;5028938;28;20189;-58
2022/02/15 01:59:01;;;;;;;3.35;1.15;;;23.50;57.60;;;;;;5028547;28;20295;-58
2022/02/15 02:01:34;;;;;;;3.03;1.42;;;23.50;57.60;;;;;;5028597;28;20189;-57
2022/02/15 02:04:05;;;;;;;2.17;1.30;;;23.50;57.50;;;;;;5027372;28;20254;-57
2022/02/15 02:06:34;;;;;;;4.03;1.25;;;23.60;57.50;;;;;;5027723;28;20199;-58
2022/02/15 02:09:04;;;;;;;2.70;1.30;;;23.60;57.30;;;;;;5028883;28;20578;-59
2022/02/15 02:11:35;;;;;;;2.20;1.10;;;23.70;57.40;;;;;;5028706;28;20197;-57
2022/02/15 02:14:06;;;;;;;2.08;1.10;;;23.70;57.30;;;;;;5028430;28;20231;-57
2022/02/15 02:16:39;;;;;;;3.97;1.42;;;23.70;57.30;;;;;;5028011;28;20204;-57
2022/02/15 02:19:09;;;;;;;3.13;1.42;;;23.70;57.20;;;;;;5029486;28;20671;-57
2022/02/15 02:21:42;;;;;;;2.88;1.10;;;23.80;57.30;;;;;;5028643;28;20287;-58
2022/02/15 02:24:13;;;;;;;4.68;1.52;;;23.80;57.20;;;;;;5027785;28;20189;-58
2022/02/15 02:26:44;;;;;;;1.80;1.20;;;23.80;57.10;;;;;;5028641;28;20706;-56
2022/02/15 02:29:14;;;;;;;2.42;1.23;;;23.80;57.00;;;;;;5028731;28;20223;-58
2022/02/15 02:31:47;;;;;;;3.25;1.40;;;23.80;56.90;;;;;;5028465;28;20593;-57
2022/02/15 02:34:18;;;;;;;1.80;1.17;;;23.80;56.80;;;;;;5028562;28;20212;-58
2022/02/15 02:36:51;;;;;;;2.33;1.50;;;23.80;56.70;;;;;;5027818;28;20695;-58
2022/02/15 02:39:22;;;;;;;2.20;1.40;;;23.90;56.80;;;;;;5026986;28;20714;-57
2022/02/15 02:41:53;;;;;;;3.05;1.40;;;23.90;56.70;;;;;;5027821;28;20231;-58
2022/02/15 02:44:23;;;;;;;4.38;1.85;;;23.90;56.70;;;;;;5028213;28;20207;-57
2022/02/15 02:46:54;;;;;;;2.08;1.30;;;23.90;56.80;;;;;;5028263;28;20204;-57
2022/02/15 02:49:25;;;;;;;2.92;1.65;;;23.90;56.90;;;;;;5028324;28;20208;-57
2022/02/15 02:51:57;;;;;;;2.67;1.45;;;23.90;56.80;;;;;;5027083;28;20557;-58
2022/02/15 02:54:28;;;;;;;3.25;1.70;;;24.00;56.90;;;;;;5028141;28;20224;-57
2022/02/15 02:57:00;;;;;;;3.17;1.40;;;24.00;56.80;;;;;;5028166;28;20192;-58
2022/02/15 02:59:31;;;;;;;1.65;1.20;;;24.00;56.80;;;;;;5027514;28;20216;-58
2022/02/15 03:02:02;;;;;;;2.80;1.63;;;24.00;56.80;;;;;;5028462;28;20653;-56
2022/02/15 03:04:32;;;;;;;2.95;1.35;;;24.00;56.80;;;;;;5028381;28;20192;-57
2022/02/15 03:07:05;;;;;;;2.75;1.48;;;24.00;56.80;;;;;;5028420;28;20196;-57
2022/02/15 03:09:36;;;;;;;3.55;1.40;;;24.10;56.80;;;;;;5031729;28;20223;-57
2022/02/15 03:12:07;;;;;;;2.95;1.80;;;24.10;56.70;;;;;;5031883;28;20644;-58
2022/02/15 03:14:38;;;;;;;4.22;1.77;;;24.10;56.60;;;;;;5031369;28;20709;-58
2022/02/15 03:17:09;;;;;;;2.55;1.42;;;24.10;56.60;;;;;;5031396;28;20200;-57
2022/02/15 03:19:39;;;;;;;3.75;1.35;;;24.20;56.60;;;;;;5032075;28;20227;-58
2022/02/15 03:22:12;;;;;;;3.85;1.38;;;24.20;56.50;;;;;;5031703;28;20239;-57
2022/02/15 03:24:42;;;;;;;2.90;1.35;;;24.20;56.40;;;;;;5030914;28;20266;-57
2022/02/15 03:27:13;;;;;;;4.97;1.50;;;24.20;56.30;;;;;;5031433;28;20266;-57
2022/02/15 03:29:44;;;;;;;2.97;1.33;;;24.20;56.40;;;;;;5031338;28;20216;-57
2022/02/15 03:32:15;;;;;;;2.67;1.30;;;24.30;56.40;;;;;;5031157;28;20203;-57
2022/02/15 03:34:46;;;;;;;2.72;1.55;;;24.30;56.40;;;;;;5031514;28;20275;-57
2022/02/15 03:37:18;;;;;;;3.60;1.67;;;24.30;56.50;;;;;;5030545;28;20279;-58
2022/02/15 03:39:49;;;;;;;4.20;1.50;;;24.30;56.60;;;;;;5031191;28;20216;-57
2022/02/15 03:45:10;;;;;;;3.13;1.38;;;24.30;56.50;;;;;;5030844;28;20194;-57
2022/02/15 03:47:41;;;;;;;2.60;1.50;;;24.30;56.50;;;;;;5031044;28;20226;-57
2022/02/15 03:50:12;;;;;;;2.63;1.15;;;24.40;56.50;;;;;;5030441;28;20255;-58
2022/02/15 03:52:44;;;;;;;4.38;1.35;;;24.40;56.50;;;;;;5029977;28;20283;-58
2022/02/15 03:55:15;;;;;;;4.70;1.60;;;24.40;56.40;;;;;;5030289;28;20224;-58
2022/02/15 03:57:45;;;;;;;2.67;1.48;;;24.50;56.40;;;;;;5030984;28;20200;-57
2022/02/15 04:00:18;;;;;;;1.77;1.38;;;24.50;56.40;;;;;;5031132;28;20215;-58
2022/02/15 04:02:48;;;;;;;4.35;1.73;;;24.50;56.40;;;;;;5031412;28;20219;-59
2022/02/15 04:05:19;;;;;;;2.42;1.38;;;24.50;56.30;;;;;;5030347;28;20242;-58
2022/02/15 04:07:52;;;;;;;2.45;1.35;;;24.50;56.30;;;;;;5030565;28;20196;-57
2022/02/15 04:10:22;;;;;;;3.20;1.70;;;24.50;56.30;;;;;;5031086;28;20216;-57
2022/02/15 04:12:53;;;;;;;2.95;1.30;;;24.60;56.30;;;;;;5030645;28;20204;-58
2022/02/15 04:15:24;;;;;;;2.85;1.27;;;24.60;56.20;;;;;;5031000;28;20224;-58
2022/02/15 04:17:54;;;;;;;4.55;1.90;;;24.60;56.20;;;;;;5029892;28;20274;-57
2022/02/15 04:20:25;;;;;;;3.67;1.55;;;24.60;56.10;;;;;;5030498;28;20223;-58
2022/02/15 04:22:58;;;;;;;2.60;1.60;;;24.60;56.00;;;;;;5030701;28;20570;-58
2022/02/15 04:25:28;;;;;;;3.72;1.33;;;24.60;56.10;;;;;;5029853;28;20631;-57
2022/02/15 04:27:59;;;;;;;3.38;1.33;;;24.60;56.20;;;;;;5030558;28;20200;-47
2022/02/15 04:30:30;;;;;;;5.90;1.98;;;24.60;56.20;;;;;;5030441;28;20208;-57
2022/02/15 04:33:00;;;;;;;6.03;2.08;;;24.70;56.00;;;;;;5030713;28;20204;-59
2022/02/15 04:35:31;;;;;;;5.18;2.03;;;24.60;55.80;;;;;;5028809;28;20232;-58
2022/02/15 04:38:04;;;;;;;7.78;2.20;;;24.60;56.00;;;;;;5030387;28;20610;-59
2022/02/15 04:40:38;;;;;;;7.72;2.17;;;24.70;56.10;;;;;;5030256;28;20220;-58
2022/02/15 04:43:09;;;;;;;8.60;1.88;;;24.70;56.10;;;;;;5030202;28;20200;-59
2022/02/15 04:45:39;;;;;;;7.05;2.00;;;24.70;56.10;;;;;;5030321;28;20263;-57
2022/02/15 04:48:10;;;;;;;5.60;2.33;;;24.70;56.00;;;;;;5030638;28;20192;-59
2022/02/15 04:50:41;;;;;;;3.78;1.88;;;24.70;56.00;;;;;;5029723;28;20695;-59
2022/02/15 04:53:13;;;;;;;3.08;1.58;;;24.70;55.90;;;;;;5029630;28;20196;-59
2022/02/15 04:55:44;;;;;;;4.88;2.03;;;24.80;55.90;;;;;;5030122;28;20231;-59
2022/02/15 04:58:15;;;;;;;5.35;1.85;;;24.80;56.40;;;;;;5029104;28;20196;-59
2022/02/15 05:00:47;;;;;;;6.45;2.00;;;24.80;55.80;;;;;;5030222;28;20683;-58
2022/02/15 05:03:18;;;;;;;5.32;2.03;;;24.80;55.80;;;;;;5029551;28;20196;-58
2022/02/15 05:05:48;;;;;;;4.57;1.80;;;24.90;55.80;;;;;;5029112;28;20196;-59
2022/02/15 05:08:21;;;;;;;4.25;1.95;;;24.90;55.70;;;;;;5029503;28;20242;-56
2022/02/15 05:10:51;;;;;;;4.55;1.85;;;24.90;55.70;;;;;;5030131;28;20227;-59
2022/02/15 05:13:22;;;;;;;6.40;2.38;;;24.90;55.80;;;;;;5029354;28;20250;-59
2022/02/15 05:15:52;;;;;;;5.05;1.90;;;25.00;56.00;;;;;;5029954;28;20583;-59
2022/02/15 05:18:23;;;;;;;5.47;2.08;;;25.00;56.10;;;;;;5026818;28;20274;-59
2022/02/15 05:20:54;;;;;;;5.78;1.80;;;25.00;56.00;;;;;;5030952;28;20266;-60
2022/02/15 05:23:26;;;;;;;4.72;2.22;;;25.00;56.00;;;;;;5030060;28;20196;-58
2022/02/15 05:25:57;;;;;;;6.07;1.90;;;25.10;56.00;;;;;;5029625;28;20196;-58
2022/02/15 05:28:28;;;;;;;5.85;1.92;;;25.10;56.00;;;;;;5029035;28;20192;-58
2022/02/15 05:30:58;;;;;;;3.60;1.92;;;25.10;55.90;;;;;;5027928;28;20216;-59
2022/02/15 05:33:29;;;;;;;5.90;2.20;;;25.20;56.00;;;;;;5029353;28;20204;-58
2022/02/15 05:36:00;;;;;;;5.50;2.13;;;25.20;55.90;;;;;;5028838;28;20227;-58
2022/02/15 05:38:35;;;;;;;4.75;1.98;;;25.20;55.80;;;;;;5028936;28;20660;-58
2022/02/15 05:41:05;;;;;;;5.93;2.00;;;25.30;55.70;;;;;;5029459;28;20192;-58
2022/02/15 05:43:36;;;;;;;5.07;2.10;;;25.30;55.60;;;;;;5029164;28;20192;-58
2022/02/15 05:46:07;;;;;;;7.32;2.40;;;25.30;55.50;;;;;;5028990;28;20701;-57
2022/02/15 05:48:40;;;;;;;5.07;2.15;;;25.30;55.50;;;;;;5028821;28;20211;-58
2022/02/15 05:51:11;;;;;;;4.03;2.00;;;25.40;55.50;;;;;;5029233;28;20196;-58
2022/02/15 05:53:43;;;;;;;6.82;2.30;;;25.40;55.30;;;;;;5029112;28;20254;-57
2022/02/15 05:56:14;;;;;;;5.72;2.22;;;25.40;55.40;;;;;;5028874;28;20290;-59
2022/02/15 05:58:44;;;;;;;4.70;1.95;;;25.40;55.40;;;;;;5028547;28;20196;-58
2022/02/15 06:01:15;;;;;;;5.72;2.63;;;25.40;55.40;;;;;;5028424;28;20204;-57
2022/02/15 06:06:35;;;;;;;8.80;3.40;;;25.40;55.30;;;;;;5028821;28;20254;-58
2022/02/15 06:09:08;;;;;;;8.43;3.88;;;25.40;55.30;;;;;;5028455;28;20216;-58
2022/02/15 06:11:39;;;;;;;10.65;3.72;;;25.50;55.20;;;;;;5029028;28;20203;-58
2022/02/15 06:14:10;;;;;;;9.68;4.13;;;25.50;55.10;;;;;;5028813;28;20652;-58
2022/02/15 06:16:40;;;;;;;8.52;3.58;;;25.50;55.10;;;;;;5028797;28;20265;-59
2022/02/15 06:19:11;;;;;;;9.82;3.83;;;25.50;55.20;;;;;;5029206;28;20266;-59
2022/02/15 06:21:42;;;;;;;8.55;3.53;;;25.50;55.00;;;;;;5028248;28;20192;-58
2022/02/15 06:24:14;;;;;;;8.70;3.67;;;25.50;54.90;;;;;;5028324;28;20193;-59
2022/02/15 06:26:45;;;;;;;6.90;3.10;;;25.50;54.90;;;;;;5028919;28;20258;-59
2022/02/15 06:29:16;;;;;;;7.95;3.45;;;25.50;54.90;;;;;;5028599;28;20278;-59
2022/02/15 06:31:46;;;;;;;9.10;3.50;;;25.50;54.80;;;;;;5028597;28;20200;-59
2022/02/15 06:34:17;;;;;;;6.78;3.05;;;25.50;54.80;;;;;;5028393;28;20192;-58
2022/02/15 06:36:47;;;;;;;8.63;3.72;;;25.50;54.90;;;;;;5028348;28;20317;-58
2022/02/15 06:39:20;;;;;;;6.85;3.45;;;25.50;54.90;;;;;;5034159;28;20611;-59
2022/02/15 06:41:51;;;;;;;6.85;3.10;;;25.50;54.90;;;;;;5045732;28;20195;-59
2022/02/15 06:44:21;;;;;;;6.55;3.22;;;25.50;54.90;;;;;;5032879;28;20250;-59
2022/02/15 06:46:52;;;;;;;8.48;3.30;;;25.50;54.90;;;;;;5044098;28;20203;-57
2022/02/15 06:49:22;;;;;;;8.82;3.63;;;25.50;55.00;;;;;;5053324;28;20273;-58
2022/02/15 06:51:53;;;;;;;9.27;3.50;;;25.50;55.10;;;;;;5052719;28;20660;-57
2022/02/15 06:54:26;;;;;;;10.05;3.40;;;25.50;55.10;;;;;;5051821;28;20199;-57
2022/02/15 06:56:56;;;;;;;8.85;3.58;;;25.50;55.20;;;;;;5033174;28;20223;-59
2022/02/15 06:59:27;;;;;;;8.85;3.45;;;25.50;55.10;;;;;;5033201;28;20220;-58
2022/02/15 07:01:57;;;;;;;8.57;3.35;;;25.50;55.10;;;;;;5033597;28;20262;-58
2022/02/15 07:04:28;;;;;;;9.77;3.30;;;25.50;55.10;;;;;;5033257;28;20192;-59
2022/02/15 07:06:59;;;;;;;9.10;3.58;;;25.50;55.00;;;;;;5033008;28;20242;-58
2022/02/15 07:09:32;;;;;;;9.40;3.60;;;25.50;55.00;;;;;;5032602;28;20274;-58
2022/02/15 07:12:02;;;;;;;6.80;2.90;;;25.50;55.00;;;;;;5033237;28;20652;-58
2022/02/15 07:14:36;;;;;;;7.57;2.92;;;25.50;55.00;;;;;;5033192;28;20402;-57
2022/02/15 07:17:07;;;;;;;8.20;3.10;;;25.40;55.00;;;;;;5032950;28;20319;-59
2022/02/15 07:19:38;;;;;;;7.78;3.30;;;25.50;55.00;;;;;;5033020;28;20700;-58
2022/02/15 07:22:08;;;;;;;7.95;3.53;;;25.50;55.10;;;;;;5033020;28;20200;-58
2022/02/15 07:24:41;;;;;;;6.40;3.03;;;25.40;55.10;;;;;;5032630;28;20200;-58
2022/02/15 07:27:13;;;;;;;6.25;3.20;;;25.40;55.10;;;;;;5032766;28;20196;-58
2022/02/15 07:29:44;;;;;;;4.93;2.95;;;25.40;55.20;;;;;;5032907;28;20289;-59
2022/02/15 07:32:18;;;;;;;7.15;3.08;;;25.40;55.20;;;;;;5032842;28;20196;-58
2022/02/15 07:34:49;;;;;;;7.15;2.92;;;25.40;55.20;;;;;;5032732;28;20206;-58
2022/02/15 07:37:20;;;;;;;9.25;3.38;;;25.30;55.10;;;;;;5032704;28;20557;-58
2022/02/15 07:39:52;;;;;;;6.30;2.85;;;25.30;55.20;;;;;;5031981;28;20231;-58
2022/02/15 07:42:23;;;;;;;9.13;2.75;;;25.30;55.20;;;;;;5032146;28;20192;-60
2022/02/15 07:44:55;;;;;;;9.18;3.17;;;25.30;55.10;;;;;;5032242;28;20703;-58
2022/02/15 07:50:16;;;;;;;8.32;2.92;;;25.20;55.10;;;;;;5026139;28;20216;-58
2022/02/15 07:52:47;;;;;;;8.02;2.85;;;25.20;55.20;;;;;;5028258;28;20192;-58
2022/02/15 07:55:20;;;;;;;8.40;3.10;;;25.20;55.30;;;;;;5028456;28;20192;-58
2022/02/15 07:57:51;;;;;;;10.15;2.78;;;25.20;55.30;;;;;;5029784;28;20219;-59
2022/02/15 08:00:22;;;;;;;6.72;2.50;;;25.10;55.30;;;;;;5028878;28;20212;-59
2022/02/15 08:02:53;;;;;;;7.25;3.15;;;25.10;55.40;;;;;;5028226;28;20192;-59
2022/02/15 08:05:24;;;;;;;8.95;2.97;;;25.10;55.40;;;;;;5028570;28;20250;-59
2022/02/15 08:07:56;;;;;;;11.02;3.72;;;25.10;55.30;;;;;;5028885;28;20319;-59
2022/02/15 08:10:29;;;;;;;9.02;3.15;;;25.10;55.40;;;;;;5027834;28;20284;-58
2022/02/15 08:13:01;;;;;;;8.57;3.20;;;25.00;55.40;;;;;;5028555;28;20200;-58
2022/02/15 08:15:36;;;;;;;9.20;3.00;;;25.00;55.40;;;;;;5026925;28;20204;-58
2022/02/15 08:18:07;;;;;;;9.13;3.33;;;25.00;55.40;;;;;;5028102;28;20219;-58
2022/02/15 08:23:22;;;;;;;11.75;4.05;;;25.00;55.50;;;;;;5403824;22;20232;-64
2022/02/15 08:25:55;;;;;;;13.25;3.70;;;24.90;55.50;;;;;;5027366;28;20531;-52
2022/02/15 08:28:26;;;;;;;12.27;4.38;;;24.90;55.50;;;;;;5028385;28;20610;-63
2022/02/15 08:30:56;;;;;;;13.10;3.92;;;24.90;55.60;;;;;;5028666;28;20212;-60
2022/02/15 08:33:30;;;;;;;13.48;4.35;;;24.90;55.60;;;;;;5028583;28;20192;-65
2022/02/15 08:36:00;;;;;;;11.35;4.03;;;24.90;55.70;;;;;;5028458;28;20259;-62
2022/02/15 08:38:33;;;;;;;9.73;3.53;;;24.80;55.60;;;;;;5027944;28;20827;-68
2022/02/15 08:41:06;;;;;;;10.13;4.10;;;24.80;55.70;;;;;;5028018;28;20212;-60
2022/02/15 08:43:36;;;;;;;9.52;3.38;;;24.70;55.70;;;;;;5028342;28;20796;-67
2022/02/15 08:46:07;;;;;;;10.35;3.60;;;24.70;55.80;;;;;;5028133;28;20262;-68
2022/02/15 08:48:38;;;;;;;8.05;3.58;;;24.70;55.80;;;;;;5027567;28;20226;-69
2022/02/15 08:51:09;;;;;;;9.13;3.47;;;24.70;55.80;;;;;;5027985;28;20212;-65
2022/02/15 08:53:40;;;;;;;9.13;3.65;;;24.70;55.80;;;;;;5028223;28;20200;-64
2022/02/15 08:56:12;;;;;;;10.85;3.53;;;24.70;55.80;;;;;;5028566;28;20577;-68
2022/02/15 08:58:43;;;;;;;8.70;3.30;;;24.70;55.90;;;;;;5028066;28;20212;-68
2022/02/15 09:01:13;;;;;;;10.32;3.50;;;24.60;55.80;;;;;;5028438;28;20188;-63
2022/02/15 09:03:44;;;;;;;10.93;4.25;;;24.60;55.80;;;;;;5027164;28;20250;-67
2022/02/15 09:06:15;;;;;;;8.32;3.53;;;24.60;55.80;;;;;;5027498;28;20196;-58
2022/02/15 09:08:46;;;;;;;9.20;3.53;;;24.50;55.80;;;;;;5027720;28;20721;-68
2022/02/15 09:11:18;;;;;;;9.70;3.08;;;24.50;55.80;;;;;;5027888;28;20254;-68
2022/02/15 09:13:49;;;;;;;9.45;3.80;;;24.50;55.80;;;;;;5028100;28;20211;-67
2022/02/15 09:16:19;;;;;;;8.00;3.22;;;24.50;55.90;;;;;;5028089;28;20319;-59
2022/02/15 09:18:50;;;;;;;8.38;3.17;;;24.40;55.90;;;;;;5027626;28;20270;-61
2022/02/15 09:21:21;;;;;;;8.13;3.42;;;24.40;55.90;;;;;;5027712;28;20660;-63
2022/02/15 09:23:51;;;;;;;6.72;3.47;;;24.40;55.90;;;;;;5040537;22;20247;-58
2022/02/15 09:26:24;;;;;;;8.35;3.30;;;24.40;55.90;;;;;;5027911;28;20192;-59
2022/02/15 09:28:54;;;;;;;8.00;3.55;;;24.30;55.90;;;;;;5027379;28;20200;-59
2022/02/15 09:31:25;;;;;;;8.38;3.38;;;24.30;56.00;;;;;;5027487;28;20211;-59
2022/02/15 09:33:55;;;;;;;7.95;3.50;;;24.30;56.10;;;;;;5027598;28;20196;-59
2022/02/15 09:36:27;;;;;;;8.68;3.55;;;24.20;56.00;;;;;;5027259;28;20794;-59
2022/02/15 09:38:57;;;;;;;6.53;3.42;;;24.20;56.10;;;;;;5027062;28;20717;-59
2022/02/15 09:41:33;;;;;;;7.65;3.53;;;24.20;56.10;;;;;;5026844;28;20196;-59
2022/02/15 09:44:05;;;;;;;6.47;2.80;;;24.20;56.10;;;;;;5027563;28;20223;-58
2022/02/15 09:46:42;;;;;;;7.72;3.17;;;24.20;56.10;;;;;;5026815;28;20255;-59
2022/02/15 09:49:48;;;;;;;5.47;2.83;;;24.20;56.10;;;;;;5027261;28;20647;-59
2022/02/15 09:52:04;;;;;;;7.40;3.08;;;24.10;56.10;;;;;;5026599;28;20201;-59
2022/02/15 09:54:35;;;;;;;9.77;3.42;;;24.10;56.10;;;;;;5026260;28;20250;-59
2022/02/15 09:57:08;;;;;;;6.35;3.10;;;24.10;56.10;;;;;;5027485;28;20769;-58
2022/02/15 09:59:39;;;;;;;8.35;3.35;;;24.00;56.10;;;;;;5026662;28;20224;-59
2022/02/15 10:02:12;;;;;;;6.75;2.95;;;24.00;56.70;;;;;;5026738;28;20208;-59
2022/02/15 10:04:43;;;;;;;5.05;2.78;;;24.00;56.10;;;;;;5026413;28;20284;-59
2022/02/15 10:07:14;;;;;;;7.00;3.03;;;24.00;56.20;;;;;;5027054;28;20192;-59
2022/02/15 10:09:50;;;;;;;6.88;2.50;;;23.90;56.10;;;;;;5025529;28;20231;-60
2022/02/15 10:12:24;;;;;;;5.25;2.83;;;23.90;56.10;;;;;;5026907;28;20196;-58
2022/02/15 10:14:56;;;;;;;7.30;3.03;;;23.90;56.20;;;;;;5026939;28;20204;-60
2022/02/15 10:17:27;;;;;;;5.55;2.90;;;23.80;56.20;;;;;;5025889;28;20684;-59
2022/02/15 10:19:58;;;;;;;6.55;2.95;;;23.80;56.20;;;;;;5026963;28;20266;-59
2022/02/15 10:22:29;;;;;;;6.53;3.00;;;23.80;56.30;;;;;;5026815;28;20207;-59
2022/02/15 10:25:02;;;;;;;7.18;2.95;;;23.80;56.30;;;;;;5026901;28;20254;-58
2022/02/15 10:27:35;;;;;;;5.40;2.78;;;23.80;56.30;;;;;;5026293;28;20200;-59
2022/02/15 10:30:06;;;;;;;5.85;2.53;;;23.70;56.30;;;;;;5026761;28;20705;-58
2022/02/15 10:32:37;;;;;;;4.40;2.50;;;23.70;56.30;;;;;;5025499;28;20203;-59
2022/02/15 10:35:08;;;;;;;5.63;2.92;;;23.70;56.30;;;;;;5026615;28;20188;-60
2022/02/15 10:37:39;;;;;;;4.47;2.45;;;23.70;56.40;;;;;;5024278;28;20224;-58
2022/02/15 10:40:11;;;;;;;4.95;2.70;;;23.70;56.40;;;;;;5026120;28;20262;-58
2022/02/15 10:42:43;;;;;;;5.07;2.55;;;23.60;56.30;;;;;;5026337;28;20238;-59
2022/02/15 10:45:14;;;;;;;5.28;3.08;;;23.60;56.30;;;;;;5026801;28;20196;-59
2022/02/15 10:47:46;;;;;;;5.18;2.53;;;23.60;56.30;;;;;;5026578;28;20204;-59
2022/02/15 10:50:18;;;;;;;4.25;2.47;;;23.50;56.30;;;;;;5030465;28;20311;-59
2022/02/15 10:52:49;;;;;;;5.78;2.92;;;23.50;56.30;;;;;;5030966;28;20261;-58
2022/02/15 10:55:19;;;;;;;5.72;2.78;;;23.50;56.30;;;;;;5029881;28;20204;-59
2022/02/15 10:57:54;;;;;;;6.20;2.58;;;23.50;56.30;;;;;;5029368;28;20228;-59
2022/02/15 11:00:25;;;;;;;5.40;2.60;;;23.50;56.30;;;;;;5029236;28;20212;-58
2022/02/15 11:02:56;;;;;;;5.22;2.47;;;23.40;56.30;;;;;;5029550;28;20561;-58
2022/02/15 11:05:27;;;;;;;6.18;2.85;;;23.40;56.20;;;;;;5029251;28;20219;-58
2022/02/15 11:08:01;;;;;;;4.63;2.78;;;23.40;56.20;;;;;;5029508;28;20200;-59
2022/02/15 11:10:37;;;;;;;5.22;2.80;;;23.40;56.20;;;;;;5029307;28;20224;-59
2022/02/15 11:13:12;;;;;;;4.95;2.60;;;23.40;56.20;;;;;;5028981;28;20196;-58
2022/02/15 11:15:43;;;;;;;5.63;2.40;;;23.30;56.30;;;;;;5029013;28;20199;-59
2022/02/15 11:18:19;;;;;;;5.63;2.88;;;23.30;56.90;;;;;;5028985;28;20235;-60
2022/02/15 11:20:55;;;;;;;5.88;2.42;;;23.30;56.30;;;;;;5028792;28;20254;-59
2022/02/15 11:23:26;;;;;;;5.47;2.67;;;23.30;56.30;;;;;;5029773;28;20212;-60
2022/02/15 11:26:11;;;;;;;6.03;2.70;;;23.30;56.40;;;;;;5029370;28;20266;-58
2022/02/15 11:28:56;;;;;;;5.07;2.65;;;23.20;56.30;;;;;;5029748;28;20211;-59
2022/02/15 11:31:30;;;;;;;5.20;2.55;;;23.20;56.30;;;;;;5032778;28;20277;-59
2022/02/15 11:34:03;;;;;;;5.63;2.65;;;23.20;56.40;;;;;;5032517;28;20188;-59
2022/02/15 11:36:34;;;;;;;3.65;2.10;;;23.20;56.40;;;;;;5032951;28;20208;-59
2022/02/15 11:39:12;;;;;;;4.20;2.58;;;23.10;56.40;;;;;;5032751;28;20278;-59
2022/02/15 11:41:48;;;;;;;3.67;2.10;;;23.10;56.40;;;;;;5032661;28;20192;-59
2022/02/15 11:44:31;;;;;;;4.93;2.45;;;23.10;56.40;;;;;;5032715;28;20191;-59
2022/02/15 11:47:15;;;;;;;5.65;2.83;;;23.00;56.40;;;;;;5032491;28;20772;-59
2022/02/15 11:49:53;;;;;;;6.20;2.72;;;23.00;56.40;;;;;;5031920;28;20220;-59
2022/02/15 11:52:23;;;;;;;5.32;2.72;;;23.00;56.30;;;;;;5032690;28;20195;-59
2022/02/15 11:54:55;;;;;;;4.32;2.53;;;23.00;56.30;;;;;;5032490;28;20204;-59
2022/02/15 11:57:25;;;;;;;4.82;2.35;;;23.00;56.40;;;;;;5032084;28;20798;-58
2022/02/15 11:59:58;;;;;;;5.03;2.40;;;22.90;56.30;;;;;;5032096;28;20228;-58
2022/02/15 12:02:29;;;;;;;4.93;2.53;;;22.90;56.30;;;;;;5032115;28;20725;-58
2022/02/15 12:05:04;;;;;;;3.78;2.30;;;22.90;56.40;;;;;;5031583;28;20200;-58
2022/02/15 12:07:35;;;;;;;4.22;2.40;;;22.90;56.30;;;;;;5032277;28;20203;-59
2022/02/15 12:10:08;;;;;;;4.80;2.10;;;22.90;56.30;;;;;;5032047;28;20224;-59
2022/02/15 12:12:40;;;;;;;4.47;2.20;;;22.80;56.40;;;;;;5032043;28;20436;-59
2022/02/15 12:15:13;;;;;;;3.30;2.10;;;22.80;56.40;;;;;;5032100;28;20231;-58
2022/02/15 12:17:46;;;;;;;6.72;2.70;;;22.80;56.50;;;;;;5032475;28;20232;-59
2022/02/15 12:20:19;;;;;;;5.22;2.22;;;22.80;56.50;;;;;;5031969;28;20255;-59
2022/02/15 12:22:53;;;;;;;6.43;2.50;;;22.80;56.50;;;;;;5032590;28;20295;-60
2022/02/15 12:25:23;;;;;;;4.40;2.20;;;22.70;56.50;;;;;;5032116;28;20200;-59
2022/02/15 12:27:57;;;;;;;4.03;1.92;;;22.70;56.50;;;;;;5031831;28;20207;-59
2022/02/15 12:30:29;;;;;;;4.00;2.60;;;22.70;56.50;;;;;;5031305;28;20212;-59
2022/02/15 12:33:00;;;;;;;3.63;2.35;;;22.60;56.50;;;;;;5031375;28;20208;-59
2022/02/15 12:35:31;;;;;;;3.00;2.08;;;22.60;56.50;;;;;;5030918;28;20291;-58
2022/02/15 12:38:04;;;;;;;4.75;2.35;;;22.60;56.50;;;;;;5031649;28;20805;-59
2022/02/15 12:40:35;;;;;;;3.63;2.25;;;22.60;56.50;;;;;;5030525;28;20299;-59
2022/02/15 12:43:06;;;;;;;3.53;1.83;;;22.60;56.50;;;;;;5031479;28;20250;-59
2022/02/15 12:45:46;;;;;;;3.97;2.20;;;22.50;56.40;;;;;;5031587;28;20208;-59
2022/02/15 12:48:16;;;;;;;3.72;2.10;;;22.50;56.40;;;;;;5031833;28;20192;-59
2022/02/15 12:50:48;;;;;;;3.45;1.90;;;22.50;56.40;;;;;;5030986;28;20270;-59
2022/02/15 12:53:19;;;;;;;3.95;2.00;;;22.50;56.50;;;;;;5031048;28;20200;-59
2022/02/15 12:55:52;;;;;;;3.53;2.20;;;22.50;56.50;;;;;;5031379;28;20200;-59
2022/02/15 12:58:23;;;;;;;4.13;2.13;;;22.50;56.50;;;;;;5031694;28;20228;-59
2022/02/15 13:01:00;;;;;;;4.65;2.45;;;22.50;56.60;;;;;;5031328;28;20220;-59
2022/02/15 13:03:36;;;;;;;3.35;1.90;;;22.40;56.60;;;;;;5030966;28;20246;-59
2022/02/15 13:06:13;;;;;;;3.72;1.90;;;22.40;56.60;;;;;;5030973;28;20689;-59
2022/02/15 13:08:48;;;;;;;3.03;2.30;;;22.40;56.60;;;;;;5031189;28;20204;-59
2022/02/15 13:11:19;;;;;;;3.50;2.08;;;22.40;56.60;;;;;;5031097;28;20269;-59
2022/02/15 13:13:50;;;;;;;4.35;2.35;;;22.30;56.50;;;;;;5031085;28;20258;-59
2022/02/15 13:16:23;;;;;;;4.00;2.20;;;22.30;56.60;;;;;;5030930;28;20258;-59
2022/02/15 13:18:57;;;;;;;3.58;2.30;;;22.30;56.60;;;;;;5030521;28;20579;-59
2022/02/15 13:21:29;;;;;;;3.70;1.83;;;22.30;56.60;;;;;;5030517;28;20204;-58
2022/02/15 13:24:01;;;;;;;2.92;1.80;;;22.20;56.60;;;;;;5031383;28;20210;-60